Time;durP1;ratioP1;P1;durP2;ratioP2;P2;SDS_P1;SDS_P2;PMS_P1;PMS_P2;Temp;Humidity;BMP_temperature;BMP_pressure;BME280_temperature;BME280_humidity;BME280_pressure;Samples;Min_cycle;Max_cycle;Signal;HPM_P1;HPM_P2
2022/03/03 00:00:45;;;;;;;23.02;15.50;;;;;;;2.18;79.16;94710.66;5076854;28;20217;-87
2022/03/03 00:03:13;;;;;;;22.55;13.43;;;;;;;2.18;79.23;94704.66;5076074;28;20204;-87
2022/03/03 00:05:40;;;;;;;23.42;15.05;;;;;;;2.18;79.00;94707.25;5076134;28;20321;-87
2022/03/03 00:08:08;;;;;;;18.85;13.93;;;;;;;2.19;79.39;94701.16;5076223;28;20226;-87
2022/03/03 00:10:35;;;;;;;23.67;15.32;;;;;;;2.23;79.34;94694.88;5076387;28;20250;-87
2022/03/03 00:13:02;;;;;;;18.02;14.82;;;;;;;2.23;78.20;94694.03;5075870;28;20201;-87
2022/03/03 00:15:34;;;;;;;22.88;14.32;;;;;;;2.11;78.22;94683.47;5076028;28;20203;-87
2022/03/03 00:18:01;;;;;;;16.63;12.68;;;;;;;2.12;78.32;94690.31;5076026;28;20215;-88
2022/03/03 00:20:30;;;;;;;24.63;14.60;;;;;;;2.20;78.67;94692.47;5076276;28;20207;-88
2022/03/03 00:22:56;;;;;;;19.90;13.38;;;;;;;2.19;78.82;94693.38;5076132;28;20220;-87
2022/03/03 00:25:24;;;;;;;22.75;14.85;;;;;;;2.18;79.01;94694.31;5075580;28;20209;-87
2022/03/03 00:27:51;;;;;;;16.90;13.37;;;;;;;2.17;78.65;94683.13;5075625;28;20215;-85
2022/03/03 00:30:18;;;;;;;16.10;13.60;;;;;;;2.21;78.61;94683.78;5075622;28;20514;-87
2022/03/03 00:32:45;;;;;;;18.92;13.10;;;;;;;2.21;78.25;94675.16;5075951;28;20898;-86
2022/03/03 00:52:02;;;;;;;19.52;14.45;;;;;;;2.05;80.56;94677.78;5073971;28;20450;-87
2022/03/03 00:54:29;;;;;;;33.88;15.85;;;;;;;2.12;79.79;94679.94;5074143;28;20198;-87
2022/03/03 00:56:56;;;;;;;23.05;14.07;;;;;;;2.11;79.76;94677.44;5075123;28;20224;-86
2022/03/03 00:59:23;;;;;;;22.90;14.25;;;;;;;1.96;79.65;94679.09;5074692;28;20557;-87
2022/03/03 01:01:50;;;;;;;20.02;13.30;;;;;;;1.91;80.44;94678.53;5074182;28;20212;-86
2022/03/03 01:04:19;;;;;;;20.77;13.65;;;;;;;2.04;83.58;94676.13;5074080;28;20216;-87
2022/03/03 01:06:46;;;;;;;22.15;14.52;;;;;;;2.05;80.83;94680.38;5075061;28;20226;-87
2022/03/03 01:09:15;;;;;;;19.75;14.38;;;;;;;2.07;80.24;94681.13;5074604;28;20229;-87
2022/03/03 01:11:42;;;;;;;19.05;14.45;;;;;;;2.06;80.44;94676.88;5075042;28;20555;-87
2022/03/03 01:27:38;;;;;;;19.15;14.70;;;;;;;1.95;81.85;94661.09;5073134;28;20282;-86
2022/03/03 01:30:06;;;;;;;23.52;15.43;;;;;;;1.99;82.57;94670.34;5039200;28;20231;-88
2022/03/03 01:32:33;;;;;;;22.30;15.02;;;;;;;2.08;81.77;94660.34;5073986;28;20215;-87
2022/03/03 01:35:00;;;;;;;24.17;16.17;;;;;;;2.06;81.33;94651.00;5073877;28;20678;-86
2022/03/03 01:37:27;;;;;;;24.10;17.63;;;;;;;2.11;81.34;94656.75;5073813;28;20209;-86
2022/03/03 01:39:54;;;;;;;19.58;15.15;;;;;;;2.04;81.32;94645.06;5073785;28;20193;-86
2022/03/03 01:42:21;;;;;;;21.50;15.77;;;;;;;2.06;81.69;94653.59;5074102;28;20198;-87
2022/03/03 01:44:50;;;;;;;22.37;15.30;;;;;;;2.09;81.34;94648.22;5074120;28;20232;-86
2022/03/03 01:47:20;;;;;;;22.70;15.95;;;;;;;2.02;81.14;94637.38;5073907;28;20431;-87
2022/03/03 01:49:47;;;;;;;24.02;15.35;;;;;;;2.08;81.65;94644.81;5074459;28;20227;-87
2022/03/03 01:52:14;;;;;;;23.77;15.60;;;;;;;2.01;81.77;94634.88;5074379;28;20204;-87
2022/03/03 01:54:42;;;;;;;25.75;16.95;;;;;;;2.03;80.61;94648.56;5074379;28;20207;-87
2022/03/03 02:10:38;;;;;;;24.88;16.58;;;;;;;1.79;83.52;94641.25;5073711;28;20180;-88
2022/03/03 02:13:05;;;;;;;23.30;16.20;;;;;;;1.88;83.64;94639.06;5074260;28;20209;-87
2022/03/03 02:15:32;;;;;;;24.08;16.55;;;;;;;1.93;82.91;94637.88;5073935;28;20215;-87
2022/03/03 02:17:59;;;;;;;26.02;18.15;;;;;;;1.96;82.72;94636.88;5074198;28;20626;-87
2022/03/03 02:20:30;;;;;;;25.77;16.58;;;;;;;2.02;83.12;94641.72;5073965;28;20278;-87
2022/03/03 02:22:58;;;;;;;21.42;16.20;;;;;;;1.99;83.07;94641.88;5074023;28;20200;-87
2022/03/03 02:25:26;;;;;;;31.20;17.63;;;;;;;2.00;82.81;94640.97;5073775;28;20289;-88
2022/03/03 02:27:53;;;;;;;26.13;16.95;;;;;;;1.89;82.86;94638.16;5074679;28;20267;-87
2022/03/03 02:30:20;;;;;;;27.83;16.73;;;;;;;1.94;83.21;94638.72;5073715;28;20253;-87
2022/03/03 02:32:48;;;;;;;22.30;14.87;;;;;;;2.01;82.60;94645.22;5074742;28;20317;-87
2022/03/03 02:35:15;;;;;;;25.77;17.07;;;;;;;1.96;82.58;94637.72;5073719;28;20910;-87
2022/03/03 02:37:46;;;;;;;22.83;16.40;;;;;;;1.95;82.05;94641.22;5073797;28;20927;-86
2022/03/03 02:40:19;;;;;;;22.10;16.17;;;;;;;2.02;82.31;94642.53;5074146;28;20733;-88
2022/03/03 02:42:47;;;;;;;24.38;16.83;;;;;;;1.99;83.17;94641.88;5073669;28;20775;-86
2022/03/03 02:45:14;;;;;;;25.90;17.83;;;;;;;1.91;82.86;94650.06;5073549;28;20195;-87
2022/03/03 02:47:42;;;;;;;24.40;16.60;;;;;;;1.95;83.48;94645.56;5073432;28;20231;-87
2022/03/03 02:50:10;;;;;;;27.60;17.50;;;;;;;1.88;83.42;94639.06;5073762;28;20853;-87
2022/03/03 02:52:37;;;;;;;21.88;16.45;;;;;;;1.93;83.33;94637.06;5073928;28;20187;-87
2022/03/03 02:55:07;;;;;;;27.40;18.52;;;;;;;2.07;83.82;94637.13;5073557;28;20207;-87
2022/03/03 03:00:19;;;;;;;25.15;18.40;;;;;;;2.10;82.54;94640.38;5073422;28;20204;-87
2022/03/03 03:02:46;;;;;;;20.23;16.80;;;;;;;2.11;82.36;94642.03;5073421;28;20219;-87
2022/03/03 03:05:13;;;;;;;27.27;17.53;;;;;;;2.05;83.53;94639.81;5074367;28;20447;-86
2022/03/03 03:07:41;;;;;;;24.97;17.97;;;;;;;2.01;84.42;94630.53;5073502;28;20444;-87
2022/03/03 03:10:10;;;;;;;24.50;16.83;;;;;;;1.98;84.48;94620.34;5073625;28;20528;-86
2022/03/03 03:12:37;;;;;;;25.50;16.27;;;;;;;2.14;85.12;94638.44;5073019;28;20203;-87
2022/03/03 03:15:04;;;;;;;27.23;17.40;;;;;;;2.15;83.16;94643.53;5073554;28;20451;-86
2022/03/03 03:17:31;;;;;;;22.70;16.27;;;;;;;2.03;83.50;94639.06;5074846;28;20198;-86
2022/03/03 03:19:58;;;;;;;25.27;14.82;;;;;;;1.93;83.82;94631.88;5076761;28;20649;-86
2022/03/03 03:22:25;;;;;;;25.05;15.48;;;;;;;1.86;84.27;94642.56;5076685;28;20200;-86
2022/03/03 03:24:52;;;;;;;22.85;16.65;;;;;;;1.87;84.98;94648.56;5076903;28;20281;-87
2022/03/03 03:27:21;;;;;;;25.65;18.00;;;;;;;1.77;84.65;94647.41;5076941;28;20196;-87
2022/03/03 03:29:48;;;;;;;29.02;18.20;;;;;;;1.78;85.18;94647.34;5076723;28;20279;-88
2022/03/03 03:32:15;;;;;;;27.25;17.63;;;;;;;1.77;85.48;94645.66;5077044;28;20216;-88
2022/03/03 03:34:42;;;;;;;26.40;19.27;;;;;;;1.80;85.68;94644.66;5076726;28;20258;-86
2022/03/03 03:37:09;;;;;;;27.13;17.20;;;;;;;1.79;85.95;94651.59;5076250;28;20202;-86
2022/03/03 03:39:36;;;;;;;21.95;17.27;;;;;;;1.77;85.25;94642.25;5076564;28;20210;-86
2022/03/03 03:42:04;;;;;;;27.70;18.35;;;;;;;1.80;85.47;94647.25;5076118;28;20289;-87
2022/03/03 03:44:32;;;;;;;22.13;16.55;;;;;;;1.82;85.13;94635.91;5076332;28;20287;-87
2022/03/03 03:46:59;;;;;;;26.08;17.05;;;;;;;1.81;85.14;94634.22;5075346;28;20203;-87
2022/03/03 03:49:27;;;;;;;33.20;18.52;;;;;;;1.70;86.29;94639.13;5074951;28;20227;-88
2022/03/03 03:51:54;;;;;;;26.33;16.98;;;;;;;1.75;86.46;94644.91;5075067;28;20210;-88
2022/03/03 03:54:21;;;;;;;24.52;17.17;;;;;;;1.80;85.76;94637.75;5075086;28;20581;-86
2022/03/03 03:56:48;;;;;;;24.85;18.10;;;;;;;1.82;86.19;94632.47;5074743;28;20217;-90
2022/03/03 03:59:15;;;;;;;25.55;18.23;;;;;;;1.99;85.62;94639.28;5075337;28;20196;-89
2022/03/03 04:01:43;;;;;;;25.13;16.73;;;;;;;1.98;84.69;94632.44;5076068;28;20204;-88
2022/03/03 04:04:10;;;;;;;25.90;18.43;;;;;;;1.98;85.05;94641.03;5076614;28;20214;-89
2022/03/03 04:06:37;;;;;;;26.73;17.98;;;;;;;1.94;84.25;94634.38;5076742;28;20454;-90
2022/03/03 04:09:05;;;;;;;29.98;19.15;;;;;;;1.88;84.10;94628.72;5076025;28;20238;-87
2022/03/03 04:11:32;;;;;;;24.73;17.23;;;;;;;1.88;84.63;94633.88;5076144;28;20203;-86
2022/03/03 04:20:44;;;;;;;28.30;17.60;;;;;;;1.90;85.87;94621.69;5074568;28;20196;-86
2022/03/03 04:23:11;;;;;;;27.20;17.52;;;;;;;1.95;84.65;94619.69;5076122;28;20444;-88
2022/03/03 04:25:38;;;;;;;28.43;16.63;;;;;;;1.97;83.83;94617.84;5076188;28;20698;-86
2022/03/03 04:28:05;;;;;;;26.43;17.27;;;;;;;1.93;83.42;94635.31;5075648;28;20437;-86
2022/03/03 04:30:32;;;;;;;27.70;15.57;;;;;;;1.85;83.90;94637.47;5075583;28;20491;-87
2022/03/03 04:32:59;;;;;;;27.60;18.95;;;;;;;1.78;84.87;94623.22;5075780;28;20208;-89
2022/03/03 04:35:27;;;;;;;24.15;16.73;;;;;;;1.78;85.67;94623.22;5075510;28;20630;-86
2022/03/03 04:37:55;;;;;;;34.85;17.67;;;;;;;1.77;85.14;94616.38;5076432;28;20208;-86
2022/03/03 04:40:22;;;;;;;26.60;15.55;;;;;;;1.80;84.91;94627.41;5075954;28;20206;-88
2022/03/03 04:46:11;;;;;;;25.58;17.77;;;;;;;1.84;84.43;94628.88;5074372;28;20256;-87
2022/03/03 04:48:38;;;;;;;27.95;18.90;;;;;;;1.81;84.31;94623.06;5075669;28;20215;-89
2022/03/03 04:51:05;;;;;;;30.30;17.83;;;;;;;1.80;84.84;94626.56;5075527;28;20677;-87
2022/03/03 04:53:33;;;;;;;29.02;18.00;;;;;;;1.83;84.73;94627.22;5075527;28;20555;-85
2022/03/03 04:56:01;;;;;;;27.08;17.75;;;;;;;1.77;85.71;94626.72;5074614;28;20207;-86
2022/03/03 04:58:28;;;;;;;29.70;18.27;;;;;;;1.71;85.25;94611.53;5074491;28;20215;-83
2022/03/03 05:00:55;;;;;;;25.58;16.67;;;;;;;1.72;86.89;94614.03;5073638;28;20560;-84
2022/03/03 05:03:22;;;;;;;23.10;15.60;;;;;;;1.77;85.90;94616.38;5074089;28;20205;-85
2022/03/03 05:05:48;;;;;;;27.80;17.83;;;;;;;1.75;85.45;94619.06;5066712;28;20291;-84
2022/03/03 05:08:15;;;;;;;26.85;18.55;;;;;;;1.73;85.17;94620.88;5053753;28;20440;-86
2022/03/03 05:17:28;;;;;;;30.10;18.10;;;;;;;1.69;86.19;94619.38;5053482;28;20198;-83
2022/03/03 05:19:57;;;;;;;26.67;17.05;;;;;;;1.61;86.61;94618.97;5054079;28;20251;-84
2022/03/03 05:22:24;;;;;;;22.02;14.93;;;;;;;1.54;87.59;94628.81;5054342;28;20206;-83
2022/03/03 05:24:53;;;;;;;27.00;16.75;;;;;;;1.52;87.33;94622.88;5054838;28;20257;-84
2022/03/03 05:27:20;;;;;;;28.38;17.58;;;;;;;1.48;87.36;94623.13;5054630;28;20245;-84
2022/03/03 05:29:47;;;;;;;32.05;16.55;;;;;;;1.50;86.71;94629.06;5053649;28;20237;-83
2022/03/03 05:32:14;;;;;;;31.70;16.50;;;;;;;1.46;87.11;94627.56;5053777;28;20548;-83
2022/03/03 05:38:04;;;;;;;23.92;17.15;;;;;;;1.59;87.60;94627.72;5053152;28;20341;-84
2022/03/03 05:40:32;;;;;;;25.88;18.55;;;;;;;1.67;87.83;94628.97;5053276;28;20251;-84
2022/03/03 05:42:59;;;;;;;27.73;17.50;;;;;;;1.61;86.74;94631.88;5054053;28;20199;-84
2022/03/03 05:45:26;;;;;;;25.88;18.25;;;;;;;1.69;87.19;94634.06;5053435;28;20671;-84
2022/03/03 05:48:09;;;;;;;23.58;17.02;;;;;;;1.75;87.30;94634.56;5053511;28;20285;-84
2022/03/03 05:50:36;;;;;;;28.98;17.13;;;;;;;1.79;87.62;94636.06;5053412;28;20187;-85
2022/03/03 05:53:04;;;;;;;23.27;17.10;;;;;;;1.79;86.69;94633.47;5053999;28;20190;-85
2022/03/03 05:55:33;;;;;;;19.50;15.50;;;;;;;1.76;87.11;94641.41;5053700;28;20212;-83
2022/03/03 05:58:03;;;;;;;27.20;18.00;;;;;;;1.73;86.19;94635.56;5054238;28;20199;-84
2022/03/03 06:00:39;;;;;;;24.23;15.98;;;;;;;1.71;85.83;94643.38;5066807;28;20210;-83
2022/03/03 06:03:09;;;;;;;20.50;15.40;;;;;;;1.72;85.71;94639.06;5073595;28;20215;-84
2022/03/03 06:05:39;;;;;;;24.52;16.20;;;;;;;1.79;85.07;94643.84;5073508;28;20207;-84
2022/03/03 06:08:13;;;;;;;30.77;16.63;;;;;;;1.73;84.74;94638.97;5073505;28;20235;-84
2022/03/03 06:10:46;;;;;;;21.20;16.23;;;;;;;1.70;85.18;94626.22;5073378;28;20251;-84
2022/03/03 06:13:22;;;;;;;31.20;17.63;;;;;;;1.75;87.02;94628.56;5073069;28;20197;-83
2022/03/03 06:15:49;;;;;;;24.70;17.08;;;;;;;1.73;85.44;94628.63;5073178;28;20681;-83
2022/03/03 06:18:16;;;;;;;27.73;17.38;;;;;;;1.84;84.60;94626.31;5073561;28;20246;-84
2022/03/03 06:20:45;;;;;;;29.40;17.77;;;;;;;1.97;84.47;94636.78;5073598;28;20571;-84
2022/03/03 06:23:14;;;;;;;30.55;17.90;;;;;;;1.98;83.97;94632.44;5073140;28;20193;-84
2022/03/03 06:25:43;;;;;;;26.73;15.73;;;;;;;1.98;82.51;94637.63;5071485;28;20656;-84
2022/03/03 06:28:10;;;;;;;25.55;17.02;;;;;;;1.98;83.19;94637.63;5073489;28;20222;-83
2022/03/03 06:30:37;;;;;;;31.30;17.27;;;;;;;2.01;81.90;94630.53;5073650;28;20238;-84
2022/03/03 06:33:04;;;;;;;29.33;18.05;;;;;;;2.11;81.88;94628.28;5073195;28;20231;-84
2022/03/03 06:42:17;;;;;;;31.83;18.52;;;;;;;2.25;80.49;94630.06;5073163;28;20278;-83
2022/03/03 06:44:44;;;;;;;24.77;15.53;;;;;;;2.27;80.15;94641.16;5073084;28;20304;-84
2022/03/03 06:47:11;;;;;;;29.70;16.20;;;;;;;2.34;79.43;94635.59;5073161;28;20791;-84
2022/03/03 06:49:38;;;;;;;33.92;17.20;;;;;;;2.37;78.82;94635.41;5073231;28;20304;-84
2022/03/03 06:52:09;;;;;;;28.50;16.70;;;;;;;2.40;78.69;94640.41;5074343;28;20197;-84
2022/03/03 06:54:36;;;;;;;23.50;15.35;;;;;;;2.38;78.42;94638.81;5077182;28;20430;-83
2022/03/03 06:57:03;;;;;;;36.80;16.88;;;;;;;2.36;78.12;94641.50;5076936;28;20226;-84
2022/03/03 06:59:33;;;;;;;26.33;16.67;;;;;;;2.37;78.69;94648.34;5076996;28;20209;-84
2022/03/03 07:02:00;;;;;;;25.85;16.92;;;;;;;2.37;78.88;94638.00;5076795;28;20829;-84
2022/03/03 07:04:29;;;;;;;27.07;18.10;;;;;;;2.40;78.73;94652.53;5076601;28;20202;-84
2022/03/03 07:06:56;;;;;;;27.83;16.57;;;;;;;2.48;77.69;94656.31;5077475;28;20880;-84
2022/03/03 07:09:23;;;;;;;28.93;17.43;;;;;;;2.55;77.39;94645.63;5076590;28;20490;-83
2022/03/03 07:11:50;;;;;;;26.27;14.90;;;;;;;2.56;76.32;94644.69;5076780;28;20464;-84
2022/03/03 07:14:18;;;;;;;24.92;14.90;;;;;;;2.60;76.95;94649.63;5076383;28;20443;-82
2022/03/03 07:16:55;;;;;;;23.93;15.43;;;;;;;2.60;76.20;94647.03;5076404;28;20664;-83
2022/03/03 07:19:34;;;;;;;26.00;17.23;;;;;;;2.71;78.39;94654.19;5076436;28;20453;-83
2022/03/03 07:22:10;;;;;;;32.67;18.40;;;;;;;2.75;75.68;94642.72;5076010;28;20537;-85
2022/03/03 07:24:45;;;;;;;25.53;15.70;;;;;;;2.81;74.91;94650.13;5076670;28;20916;-83
2022/03/03 07:27:19;;;;;;;22.27;15.30;;;;;;;2.87;74.16;94647.16;5076383;28;20451;-83
2022/03/03 07:29:50;;;;;;;30.40;18.40;;;;;;;3.05;75.32;94646.09;5077106;28;20494;-84
2022/03/03 07:32:20;;;;;;;30.20;17.03;;;;;;;3.19;74.17;94654.81;5076458;28;20498;-84
2022/03/03 07:34:57;;;;;;;47.30;27.10;;;;;;;3.11;73.12;94650.06;5076049;28;20444;-82
2022/03/03 07:37:32;;;;;;;28.80;18.30;;;;;;;3.07;73.01;94641.66;5076263;28;20519;-83
2022/03/03 07:40:12;;;;;;;33.53;18.10;;;;;;;3.03;73.08;94641.91;5078476;28;20432;-85
2022/03/03 07:42:40;;;;;;;27.87;17.10;;;;;;;3.08;73.50;94643.31;5076214;28;20443;-84
2022/03/03 07:45:08;;;;;;;45.57;18.53;;;;;;;3.12;73.44;94638.78;5076438;28;20432;-84
2022/03/03 07:47:37;;;;;;;31.37;17.50;;;;;;;3.14;74.75;94642.09;5040759;28;20452;-84
2022/03/03 07:50:05;;;;;;;24.30;15.47;;;;;;;3.15;73.01;94637.75;5076277;28;20482;-84
2022/03/03 07:52:32;;;;;;;27.90;15.87;;;;;;;3.28;75.99;94641.28;5040899;28;20447;-84
2022/03/03 07:54:59;;;;;;;26.63;16.43;;;;;;;3.27;73.53;94637.88;5040824;28;20452;-84
2022/03/03 07:57:34;;;;;;;37.67;16.97;;;;;;;3.12;72.37;94641.38;5076047;28;20440;-84
2022/03/03 08:00:05;;;;;;;24.42;15.05;;;;;;;3.04;73.16;94641.00;5075756;28;20445;-85
2022/03/03 08:02:34;;;;;;;23.00;16.57;;;;;;;3.00;73.17;94648.13;5074953;28;20581;-84
2022/03/03 08:05:05;;;;;;;22.60;14.98;;;;;;;2.95;72.60;94644.97;5075261;28;20518;-83
2022/03/03 08:07:39;;;;;;;29.65;16.42;;;;;;;2.90;73.25;94646.19;5075444;28;20197;-83
2022/03/03 08:10:08;;;;;;;25.53;14.80;;;;;;;2.98;74.74;94636.19;5075434;28;20224;-83
2022/03/03 08:12:36;;;;;;;24.20;15.57;;;;;;;3.15;73.29;94648.94;5075754;28;20791;-84
2022/03/03 08:15:03;;;;;;;22.67;15.30;;;;;;;3.22;72.68;94641.66;5075856;28;20786;-84
2022/03/03 08:17:32;;;;;;;19.50;13.57;;;;;;;3.21;73.05;94645.19;5076318;28;20447;-83
2022/03/03 08:23:26;;;;;;;26.37;16.23;;;;;;;3.20;72.71;94640.94;5074621;28;20972;-83
2022/03/03 08:25:55;;;;;;;53.93;24.30;;;;;;;3.24;71.85;94648.44;5075157;28;20960;-83
2022/03/03 08:28:24;;;;;;;56.60;28.70;;;;;;;3.21;72.68;94638.25;5075132;28;20440;-83
2022/03/03 08:30:56;;;;;;;66.57;31.93;;;;;;;3.33;71.93;94639.25;5075241;28;20946;-83
2022/03/03 08:33:36;;;;;;;60.43;29.60;;;;;;;3.40;72.54;94627.56;5074688;28;20445;-83
2022/03/03 08:36:07;;;;;;;26.80;18.27;;;;;;;3.55;71.04;94646.56;5075564;28;20453;-83
2022/03/03 08:38:38;;;;;;;28.20;16.70;;;;;;;3.48;71.16;94653.91;5074725;28;20811;-82
2022/03/03 08:41:06;;;;;;;48.07;21.53;;;;;;;3.46;71.33;94645.34;5075285;28;20448;-82
2022/03/03 08:46:58;;;;;;;40.57;19.40;;;;;;;3.64;70.91;94648.56;5074019;28;20423;-83
2022/03/03 08:49:30;;;;;;;39.90;20.60;;;;;;;3.79;70.74;94639.88;5075038;28;20571;-83
2022/03/03 08:51:57;;;;;;;34.50;18.07;;;;;;;3.80;70.51;94648.47;5074763;28;20459;-84
2022/03/03 08:54:26;;;;;;;33.60;19.90;;;;;;;3.93;69.92;94645.00;5074637;28;20443;-82
2022/03/03 08:56:53;;;;;;;39.70;19.53;;;;;;;3.88;68.81;94638.44;5073837;28;20453;-83
2022/03/03 08:59:20;;;;;;;37.10;19.90;;;;;;;3.93;69.95;94634.63;5038333;28;20927;-84
2022/03/03 09:01:47;;;;;;;43.40;26.80;;;;;;;4.06;69.91;94644.25;5074005;28;20465;-84
2022/03/03 09:04:14;;;;;;;36.43;22.90;;;;;;;4.11;69.86;94637.84;5074244;28;20437;-84
2022/03/03 09:06:41;;;;;;;31.47;18.40;;;;;;;4.18;69.78;94633.91;5074361;28;20908;-83
2022/03/03 09:09:09;;;;;;;24.47;13.97;;;;;;;4.14;68.92;94637.63;5075030;28;20430;-82
2022/03/03 09:11:38;;;;;;;21.90;13.90;;;;;;;4.15;68.63;94628.91;5074383;28;20962;-84
2022/03/03 09:14:07;;;;;;;34.87;18.10;;;;;;;4.31;69.36;94639.13;5073626;28;20475;-83
2022/03/03 09:16:35;;;;;;;32.50;19.17;;;;;;;4.30;67.90;94627.91;5074119;28;20433;-83
2022/03/03 09:19:02;;;;;;;28.27;18.17;;;;;;;4.43;68.18;94632.31;5074817;28;20848;-84
2022/03/03 09:21:29;;;;;;;28.17;18.57;;;;;;;4.47;68.24;94626.81;5073894;28;20476;-84
2022/03/03 09:23:56;;;;;;;23.00;17.57;;;;;;;4.54;67.22;94642.84;5074085;28;20457;-83
2022/03/03 09:26:23;;;;;;;27.90;18.70;;;;;;;4.63;68.32;94634.47;5055828;28;20444;-83
2022/03/03 09:28:52;;;;;;;31.17;18.30;;;;;;;4.67;67.61;94630.72;5074519;28;20468;-83
2022/03/03 09:31:19;;;;;;;22.10;14.90;;;;;;;4.87;66.43;94637.19;5074651;28;20488;-84
2022/03/03 09:33:46;;;;;;;22.53;14.37;;;;;;;4.90;66.00;94632.59;5074170;28;20449;-84
2022/03/03 09:36:13;;;;;;;29.73;15.80;;;;;;;5.02;64.87;94637.94;5074595;28;20920;-84
2022/03/03 09:38:39;;;;;;;30.33;16.70;;;;;;;5.03;65.11;94631.81;5074527;28;20445;-85
2022/03/03 09:41:06;;;;;;;29.97;17.40;;;;;;;5.12;65.68;94626.81;5074212;28;20445;-84
2022/03/03 09:43:33;;;;;;;24.13;15.70;;;;;;;5.22;64.60;94622.66;5073744;28;20923;-85
2022/03/03 09:46:02;;;;;;;22.47;14.43;;;;;;;5.32;63.77;94628.06;5074067;28;20927;-84
2022/03/03 09:48:29;;;;;;;20.10;16.20;;;;;;;5.39;64.63;94618.88;5074039;28;20502;-84
2022/03/03 09:50:56;;;;;;;24.83;15.10;;;;;;;5.34;63.02;94614.94;5074199;28;20480;-85
2022/03/03 09:53:23;;;;;;;15.93;13.33;;;;;;;5.51;63.91;94627.63;5074163;28;20430;-85
2022/03/03 09:55:51;;;;;;;23.30;14.10;;;;;;;5.50;63.87;94629.41;5073723;28;20444;-84
2022/03/03 09:58:18;;;;;;;20.20;14.70;;;;;;;5.65;62.98;94624.06;5073610;28;20469;-85
2022/03/03 10:00:46;;;;;;;20.33;13.90;;;;;;;5.80;62.25;94613.41;5074200;28;20444;-84
2022/03/03 10:03:16;;;;;;;20.43;14.23;;;;;;;5.94;61.95;94615.06;5073618;28;20436;-84
2022/03/03 10:19:12;;;;;;;27.43;13.90;;;;;;;5.38;61.67;94613.78;5075022;28;20404;-86
2022/03/03 10:21:41;;;;;;;16.90;11.80;;;;;;;5.34;62.62;94605.38;5073388;28;20448;-86
2022/03/03 10:24:19;;;;;;;19.23;13.20;;;;;;;5.12;62.76;94616.41;5073692;28;20448;-84
2022/03/03 10:26:47;;;;;;;17.50;12.40;;;;;;;5.18;62.62;94620.34;5076050;28;20797;-85
2022/03/03 10:29:18;;;;;;;16.00;12.03;;;;;;;5.15;64.17;94629.19;5077992;28;20494;-85
2022/03/03 10:31:49;;;;;;;35.70;20.77;;;;;;;5.20;63.55;94621.06;5077432;28;20979;-83
2022/03/03 10:34:19;;;;;;;26.60;14.77;;;;;;;5.23;64.35;94603.53;5077201;28;20433;-83
2022/03/03 10:36:56;;;;;;;21.23;14.73;;;;;;;5.37;64.24;94612.97;5077088;28;21005;-84
2022/03/03 10:39:23;;;;;;;27.13;17.50;;;;;;;5.43;63.19;94615.13;5077126;28;20448;-84
2022/03/03 10:41:55;;;;;;;24.00;15.60;;;;;;;5.36;63.57;94608.69;5075389;28;21000;-83
2022/03/03 10:44:24;;;;;;;25.17;17.23;;;;;;;5.17;63.70;94592.69;5077001;28;20433;-84
2022/03/03 10:47:02;;;;;;;20.50;13.50;;;;;;;5.16;62.72;94597.06;5077382;28;20460;-85
2022/03/03 10:49:31;;;;;;;29.37;17.00;;;;;;;5.20;62.96;94587.25;5077256;28;20445;-83
2022/03/03 10:52:11;;;;;;;26.00;15.23;;;;;;;5.27;63.89;94581.56;5077067;28;20823;-85
2022/03/03 10:54:52;;;;;;;16.50;13.60;;;;;;;5.37;64.00;94581.75;5076941;28;20442;-84
2022/03/03 10:57:34;;;;;;;22.60;14.43;;;;;;;5.47;61.93;94587.13;5077110;28;20433;-84
2022/03/03 11:00:03;;;;;;;18.13;15.80;;;;;;;5.48;62.21;94596.59;5076733;28;20962;-84
2022/03/03 11:02:30;;;;;;;17.03;11.00;;;;;;;5.50;61.33;94585.16;5076601;28;20451;-84
2022/03/03 11:04:59;;;;;;;19.33;13.53;;;;;;;5.60;62.46;94596.59;5076575;28;20455;-84
2022/03/03 11:07:26;;;;;;;20.30;12.37;;;;;;;5.72;61.92;94592.28;5076677;28;20958;-84
2022/03/03 11:09:54;;;;;;;18.43;12.27;;;;;;;5.71;61.04;94597.59;5076656;28;20425;-84
2022/03/03 11:12:21;;;;;;;19.97;13.17;;;;;;;5.77;62.95;94604.97;5076723;28;20448;-85
2022/03/03 11:14:48;;;;;;;21.43;13.57;;;;;;;5.88;62.61;94589.44;5076508;28;20437;-84
2022/03/03 11:17:15;;;;;;;23.80;14.83;;;;;;;5.93;62.38;94579.53;5076030;28;20448;-85
2022/03/03 11:19:43;;;;;;;18.53;13.97;;;;;;;6.07;62.81;94595.03;5076128;28;20539;-84
2022/03/03 11:22:16;;;;;;;14.67;12.87;;;;;;;6.16;61.45;94588.31;5075200;28;20476;-85
2022/03/03 11:24:43;;;;;;;25.10;16.70;;;;;;;6.20;61.62;94595.78;5075168;28;20514;-85
2022/03/03 11:27:11;;;;;;;33.43;18.57;;;;;;;6.24;60.32;94595.56;5076309;28;20444;-85
2022/03/03 11:29:39;;;;;;;18.50;13.40;;;;;;;6.15;60.46;94590.09;5076085;28;20482;-84
2022/03/03 11:32:08;;;;;;;19.87;12.93;;;;;;;6.08;60.34;94596.69;5057566;28;20473;-85
2022/03/03 11:34:44;;;;;;;16.83;12.50;;;;;;;5.97;60.97;94604.44;5076689;28;20441;-85
2022/03/03 11:37:22;;;;;;;18.73;11.90;;;;;;;5.91;61.25;94599.66;5075806;28;20445;-85
2022/03/03 11:39:54;;;;;;;15.93;12.90;;;;;;;5.76;62.33;94595.50;5076083;28;20437;-85
2022/03/03 11:42:26;;;;;;;19.33;11.60;;;;;;;5.55;63.03;94596.09;5075992;28;20448;-85
2022/03/03 11:44:55;;;;;;;18.10;11.80;;;;;;;5.51;62.04;94601.63;5076407;28;20523;-85
2022/03/03 11:47:25;;;;;;;18.33;12.60;;;;;;;5.40;62.59;94601.50;5074189;28;20437;-84
2022/03/03 11:50:03;;;;;;;17.17;12.00;;;;;;;5.30;63.20;94598.72;5075792;28;21279;-84
2022/03/03 12:06:08;;;;;;;24.80;16.20;;;;;;;5.38;63.99;94583.41;5074628;28;20486;-84
2022/03/03 12:08:37;;;;;;;21.23;14.27;;;;;;;5.43;63.02;94578.72;5075718;28;20812;-85
2022/03/03 12:11:07;;;;;;;19.27;13.13;;;;;;;5.54;62.65;94576.22;5075288;28;20530;-85
2022/03/03 12:13:43;;;;;;;21.70;12.97;;;;;;;5.62;62.83;94577.44;5075233;28;20444;-85
2022/03/03 12:16:17;;;;;;;23.13;14.47;;;;;;;5.73;63.54;94580.09;5075676;28;20441;-85
2022/03/03 12:18:45;;;;;;;26.77;14.87;;;;;;;5.83;62.57;94578.53;5075486;28;20437;-85
2022/03/03 12:21:29;;;;;;;20.10;14.60;;;;;;;5.82;61.87;94571.66;5075588;28;20440;-85
2022/03/03 12:27:17;;;;;;;29.20;16.93;;;;;;;5.95;61.35;94569.84;5074554;28;20507;-83
2022/03/03 12:29:57;;;;;;;20.47;14.47;;;;;;;5.90;62.00;94571.97;5056522;28;20480;-85
2022/03/03 12:32:41;;;;;;;20.00;14.07;;;;;;;5.90;62.55;94564.97;5074872;28;20477;-84
2022/03/03 12:35:28;;;;;;;24.57;15.67;;;;;;;6.00;62.73;94572.94;5074964;28;20429;-85
2022/03/03 12:37:59;;;;;;;15.57;11.30;;;;;;;6.03;60.72;94564.09;5052875;28;20452;-85
2022/03/03 12:40:29;;;;;;;17.10;12.90;;;;;;;6.20;60.66;94568.91;5052711;28;20449;-83
2022/03/03 12:42:56;;;;;;;16.40;12.40;;;;;;;6.18;60.51;94571.63;5052846;28;20476;-84
2022/03/03 12:45:23;;;;;;;18.60;12.37;;;;;;;6.16;60.51;94573.53;5052522;28;20948;-84
2022/03/03 12:47:53;;;;;;;16.93;13.07;;;;;;;6.07;59.62;94573.34;5052595;28;20436;-84
2022/03/03 12:50:21;;;;;;;20.47;12.03;;;;;;;6.15;60.75;94568.41;5051909;28;20438;-86
2022/03/03 12:53:03;;;;;;;17.80;11.10;;;;;;;6.15;58.91;94558.84;5051654;28;20959;-84
2022/03/03 12:55:33;;;;;;;18.60;12.63;;;;;;;6.21;60.91;94553.16;5051807;28;20441;-85
2022/03/03 12:58:01;;;;;;;18.00;12.50;;;;;;;6.30;59.82;94564.69;5052367;28;20459;-85
2022/03/03 13:00:28;;;;;;;20.93;12.93;;;;;;;6.31;59.17;94555.09;5019455;28;20438;-84
2022/03/03 13:02:57;;;;;;;14.27;11.77;;;;;;;6.33;59.58;94555.81;5052385;28;20540;-85
2022/03/03 13:05:48;;;;;;;19.80;13.50;;;;;;;6.43;59.72;94560.25;5052293;28;20438;-84
2022/03/03 13:08:24;;;;;;;19.23;14.47;;;;;;;6.61;59.52;94565.84;5052275;28;20438;-85
2022/03/03 13:10:52;;;;;;;18.60;12.10;;;;;;;6.59;58.49;94565.13;5052055;28;20477;-83
2022/03/03 13:13:19;;;;;;;18.30;12.50;;;;;;;6.55;58.18;94563.72;5052343;28;20472;-84
2022/03/03 13:15:47;;;;;;;20.93;14.63;;;;;;;6.43;58.41;94559.41;5069145;28;20444;-86
2022/03/03 13:18:16;;;;;;;19.73;14.70;;;;;;;6.34;57.52;94554.88;5074091;28;20433;-84
2022/03/03 13:20:46;;;;;;;24.17;15.10;;;;;;;6.35;57.84;94562.56;5074397;28;20436;-85
2022/03/03 13:23:16;;;;;;;19.20;13.13;;;;;;;6.45;59.63;94567.94;5073963;28;20511;-84